sensor_id;sensor_type;location;lat;lon;timestamp;pressure;altitude;pressure_sealevel;temperature;humidity
84190;BME280;74321;53.406;8.146;2024-01-15T20:15:44;99925.09;;;-1.95;100.00
84190;BME280;74321;53.406;8.146;2024-01-15T20:20:46;100077.44;;;-1.17;100.00
84190;BME280;74321;53.406;8.146;2024-01-15T20:25:48;100203.53;;;-0.52;100.00
84190;BME280;74321;53.406;8.146;2024-01-15T20:30:50;100158.28;;;-0.79;100.00
84190;BME280;74321;53.406;8.146;2024-01-15T20:35:52;100157.75;;;-0.96;100.00
84190;BME280;74321;53.406;8.146;2024-01-15T20:40:55;100188.44;;;-0.79;100.00
84190;BME280;74321;53.406;8.146;2024-01-15T20:45:57;100193.16;;;-0.90;100.00
84190;BME280;74321;53.406;8.146;2024-01-15T20:51:00;100224.22;;;-0.88;100.00
84190;BME280;74321;53.406;8.146;2024-01-15T20:56:02;100201.00;;;-1.06;100.00
84190;BME280;74321;53.406;8.146;2024-01-15T21:01:04;100009.72;;;-2.17;100.00
84190;BME280;74321;53.406;8.146;2024-01-15T21:06:06;100155.38;;;-1.42;100.00
84190;BME280;74321;53.406;8.146;2024-01-15T21:11:10;100101.03;;;-1.89;100.00
84190;BME280;74321;53.406;8.146;2024-01-15T21:16:14;100145.78;;;-1.78;100.00
84190;BME280;74321;53.406;8.146;2024-01-15T21:21:16;100222.38;;;-1.43;100.00
84190;BME280;74321;53.406;8.146;2024-01-15T21:26:18;100152.31;;;-1.83;100.00
84190;BME280;74321;53.406;8.146;2024-01-15T21:31:20;100307.84;;;-0.93;100.00
84190;BME280;74321;53.406;8.146;2024-01-15T21:36:22;100300.06;;;-1.25;100.00
84190;BME280;74321;53.406;8.146;2024-01-15T21:41:25;100325.63;;;-1.13;100.00
84190;BME280;74321;53.406;8.146;2024-01-15T21:46:27;100285.16;;;-1.66;100.00
84190;BME280;74321;53.406;8.146;2024-01-15T21:51:30;100200.50;;;-2.15;100.00
84190;BME280;74321;53.406;8.146;2024-01-15T21:56:32;100349.59;;;-1.22;100.00
84190;BME280;74321;53.406;8.146;2024-01-15T22:01:37;100296.66;;;-1.49;100.00
84190;BME280;74321;53.406;8.146;2024-01-15T22:06:39;100204.41;;;-2.00;100.00
84190;BME280;74321;53.406;8.146;2024-01-15T22:11:41;100290.00;;;-1.49;100.00
84190;BME280;74321;53.406;8.146;2024-01-15T22:16:46;100244.63;;;-1.76;100.00
84190;BME280;74321;53.406;8.146;2024-01-15T22:21:48;100315.78;;;-1.30;100.00
84190;BME280;74321;53.406;8.146;2024-01-15T22:26:52;100289.03;;;-1.52;100.00
84190;BME280;74321;53.406;8.146;2024-01-15T22:31:58;100357.09;;;-1.24;100.00
84190;BME280;74321;53.406;8.146;2024-01-15T22:37:01;100366.25;;;-1.24;100.00
84190;BME280;74321;53.406;8.146;2024-01-15T22:42:03;100349.13;;;-1.34;100.00
84190;BME280;74321;53.406;8.146;2024-01-15T22:47:05;100233.41;;;-2.08;100.00
84190;BME280;74321;53.406;8.146;2024-01-15T22:52:07;100377.25;;;-1.22;100.00
84190;BME280;74321;53.406;8.146;2024-01-15T22:57:09;100339.56;;;-1.45;100.00
84190;BME280;74321;53.406;8.146;2024-01-15T23:02:12;100362.56;;;-1.34;100.00
84190;BME280;74321;53.406;8.146;2024-01-15T23:07:14;100401.00;;;-1.14;100.00
84190;BME280;74321;53.406;8.146;2024-01-15T23:12:16;100362.56;;;-1.34;100.00
84190;BME280;74321;53.406;8.146;2024-01-15T23:17:18;100453.50;;;-0.99;100.00
84190;BME280;74321;53.406;8.146;2024-01-15T23:22:24;100440.25;;;-1.18;100.00
84190;BME280;74321;53.406;8.146;2024-01-15T23:27:26;100406.72;;;-1.40;100.00
84190;BME280;74321;53.406;8.146;2024-01-15T23:32:28;100401.09;;;-1.33;100.00
84190;BME280;74321;53.406;8.146;2024-01-15T23:37:30;100389.88;;;-1.43;100.00
84190;BME280;74321;53.406;8.146;2024-01-15T23:42:32;100323.75;;;-1.87;100.00
84190;BME280;74321;53.406;8.146;2024-01-15T23:47:35;100391.38;;;-1.48;100.00
84190;BME280;74321;53.406;8.146;2024-01-15T23:52:37;100365.97;;;-1.56;100.00
84190;BME280;74321;53.406;8.146;2024-01-15T23:57:41;100278.53;;;-2.09;100.00
